createdAt,value
2022-08-12T00:02:05.065Z,55.69
2022-08-12T00:05:28.135Z,55.49
2022-08-12T00:08:50.860Z,54.99
2022-08-12T00:12:12.678Z,55.10
2022-08-12T00:15:34.426Z,54.94
2022-08-12T00:18:56.513Z,55.14
2022-08-12T00:22:18.106Z,55.05
2022-08-12T00:26:18.991Z,54.96
2022-08-12T00:29:20.698Z,55.02
2022-08-12T00:32:52.823Z,55.23
2022-08-12T00:36:36.238Z,55.50
2022-08-12T00:39:58.205Z,55.75
2022-08-12T00:43:00.698Z,56.04
2022-08-12T00:46:22.122Z,56.58
2022-08-12T00:49:25.050Z,56.87
2022-08-12T00:52:27.611Z,57.37
2022-08-12T00:55:29.955Z,57.71
2022-08-12T00:58:33.038Z,57.99
2022-08-12T01:02:10.376Z,58.62
2022-08-12T01:05:21.801Z,58.93
2022-08-12T01:08:42.656Z,59.60
2022-08-12T01:11:45.457Z,59.61
2022-08-12T01:14:48.438Z,60.15
2022-08-12T01:17:51.194Z,60.60
2022-08-12T01:21:00.267Z,60.50
2022-08-12T01:24:30.003Z,60.30
2022-08-12T01:27:29.925Z,60.81
2022-08-12T01:30:33.894Z,60.82
2022-08-12T01:33:59.704Z,61.10
2022-08-12T01:37:03.551Z,61.16
2022-08-12T01:40:34.097Z,60.98
2022-08-12T01:43:32.033Z,60.82
2022-08-12T01:46:39.032Z,61.09
2022-08-12T01:50:04.429Z,60.72
2022-08-12T01:53:10.624Z,60.78
2022-08-12T01:56:14.596Z,61.04
2022-08-12T01:59:47.439Z,60.95
2022-08-12T02:02:57.763Z,61.33
2022-08-12T02:06:28.315Z,61.57
2022-08-12T02:10:05.939Z,61.72
2022-08-12T02:13:41.795Z,61.62
2022-08-12T02:16:58.938Z,61.68
2022-08-12T02:20:01.699Z,61.99
2022-08-12T02:23:06.799Z,62.42
2022-08-12T02:26:09.545Z,62.33
2022-08-12T02:29:12.795Z,62.06
2022-08-12T02:32:15.431Z,62.29
2022-08-12T02:35:22.686Z,62.37
2022-08-12T02:38:26.367Z,63.02
2022-08-12T02:41:30.118Z,62.77
2022-08-12T02:44:37.382Z,62.86
2022-08-12T02:47:59.835Z,63.00
2022-08-12T02:51:05.375Z,63.07
2022-08-12T02:54:07.934Z,63.15
2022-08-12T02:57:13.187Z,63.56
2022-08-12T03:00:16.177Z,63.62
2022-08-12T03:03:19.414Z,63.48
2022-08-12T03:06:23.680Z,63.80
2022-08-12T03:09:29.140Z,64.02
2022-08-12T03:12:49.396Z,63.93
2022-08-12T03:15:55.440Z,63.91
2022-08-12T03:18:58.043Z,64.54
2022-08-12T03:22:13.110Z,64.49
2022-08-12T03:25:17.441Z,64.67
2022-08-12T03:28:38.568Z,64.81
2022-08-12T03:31:40.838Z,64.57
2022-08-12T03:34:47.951Z,65.01
2022-08-12T03:37:50.517Z,65.15
2022-08-12T03:41:17.474Z,65.27
2022-08-12T03:44:45.603Z,65.54
2022-08-12T03:48:19.209Z,65.87
2022-08-12T03:51:40.463Z,66.08
2022-08-12T03:55:01.734Z,66.13
2022-08-12T03:58:22.908Z,66.50
2022-08-12T04:01:25.994Z,66.07
2022-08-12T04:04:35.548Z,66.30
2022-08-12T04:07:37.880Z,66.29
2022-08-12T04:11:19.329Z,66.26
2022-08-12T04:14:21.679Z,66.45
2022-08-12T04:17:26.621Z,66.35
2022-08-12T04:20:29.536Z,66.12
2022-08-12T04:23:33.742Z,66.32
2022-08-12T04:26:36.568Z,65.96
2022-08-12T04:30:30.376Z,66.20
2022-08-12T04:33:02.420Z,66.29
2022-08-12T04:36:05.097Z,66.59
2022-08-12T04:39:08.588Z,65.84
2022-08-12T04:42:11.249Z,65.65
2022-08-12T04:45:13.607Z,65.72
2022-08-12T04:48:24.952Z,65.49
2022-08-12T04:51:27.996Z,65.56
2022-08-12T04:54:30.930Z,65.18
2022-08-12T04:57:33.285Z,64.68
2022-08-12T05:00:37.388Z,64.23
2022-08-12T05:03:45.871Z,64.10
2022-08-12T05:06:49.407Z,63.77
2022-08-12T05:10:00.481Z,62.82
2022-08-12T05:13:07.265Z,62.72
2022-08-12T05:16:09.684Z,62.38
2022-08-12T05:19:18.452Z,61.75
2022-08-12T05:22:21.083Z,61.51
2022-08-12T05:25:23.698Z,60.80
2022-08-12T05:28:27.286Z,60.40
2022-08-12T05:31:40.585Z,60.23
2022-08-12T05:34:50.552Z,60.23
2022-08-12T05:38:13.086Z,59.49
2022-08-12T05:41:21.389Z,58.92
2022-08-12T05:44:24.035Z,58.88
2022-08-12T05:47:36.682Z,58.52
2022-08-12T05:50:53.019Z,57.82
2022-08-12T05:53:55.897Z,58.07
2022-08-12T05:57:00.565Z,57.03
2022-08-12T06:00:04.653Z,56.94
2022-08-12T06:03:17.515Z,56.02
2022-08-12T06:06:25.338Z,55.68
2022-08-12T06:09:30.988Z,55.22
2022-08-12T06:12:33.647Z,54.73
2022-08-12T06:15:37.989Z,54.17
2022-08-12T06:18:41.634Z,53.84
2022-08-12T06:21:45.449Z,54.03
2022-08-12T06:24:49.808Z,53.14
2022-08-12T06:28:07.278Z,52.44
2022-08-12T06:31:26.859Z,52.13
2022-08-12T06:35:25.895Z,51.06
2022-08-12T06:37:57.666Z,50.14
2022-08-12T06:41:19.573Z,49.17
2022-08-12T06:44:22.352Z,47.75
2022-08-12T06:47:24.785Z,46.99
2022-08-12T06:50:29.174Z,42.55
2022-08-12T06:53:33.199Z,37.25
2022-08-12T06:59:59.124Z,23.52
2022-08-12T07:03:22.761Z,20.12
2022-08-12T07:06:25.790Z,18.62
2022-08-12T07:10:04.804Z,17.34
2022-08-12T07:12:59.808Z,16.30
2022-08-12T07:16:02.646Z,16.67
2022-08-12T07:19:05.449Z,15.15
2022-08-12T07:22:14.066Z,14.61
2022-08-12T07:25:37.881Z,14.41
2022-08-12T07:28:45.186Z,14.58
2022-08-12T07:31:47.616Z,15.18
2022-08-12T07:34:50.362Z,14.30
2022-08-12T07:37:53.322Z,17.42
2022-08-12T07:41:08.048Z,14.05
2022-08-12T07:44:18.275Z,14.72
2022-08-12T07:47:20.855Z,15.85
2022-08-12T07:50:24.103Z,14.19
2022-08-12T07:53:26.731Z,15.28
2022-08-12T07:56:31.103Z,14.26
2022-08-12T07:59:35.810Z,14.21
2022-08-12T08:02:38.147Z,14.19
2022-08-12T08:05:46.208Z,15.87
2022-08-12T08:08:48.558Z,15.57
2022-08-12T08:12:18.423Z,16.16
2022-08-12T08:19:05.835Z,15.93
2022-08-12T08:22:10.175Z,15.83
2022-08-12T08:25:34.274Z,15.42
2022-08-12T08:28:36.540Z,15.36
2022-08-12T08:31:45.454Z,14.57
2022-08-12T08:34:53.602Z,14.03
2022-08-12T08:38:06.919Z,14.46
2022-08-12T08:42:19.029Z,13.55
2022-08-12T08:44:58.071Z,15.13
2022-08-12T08:48:01.055Z,13.58
2022-08-12T08:51:05.586Z,16.87
2022-08-12T08:54:08.722Z,15.83
2022-08-12T08:57:11.461Z,14.19
2022-08-12T09:05:08.252Z,17.27
2022-08-12T09:07:00.730Z,20.78
2022-08-12T09:14:12.157Z,27.21
2022-08-12T09:17:06.015Z,28.63
2022-08-12T09:20:09.495Z,29.03
2022-08-12T09:30:08.965Z,31.27
2022-08-12T09:34:26.639Z,30.89
2022-08-12T09:37:00.905Z,30.21
2022-08-12T09:40:57.771Z,29.45
2022-08-12T09:43:47.076Z,28.35
2022-08-12T09:46:57.125Z,27.85
2022-08-12T09:49:59.786Z,28.24
2022-08-12T09:53:14.895Z,27.45
2022-08-12T09:57:00.738Z,25.93
2022-08-12T10:00:13.440Z,26.70
2022-08-12T10:03:31.337Z,26.68
2022-08-12T10:06:36.548Z,26.77
2022-08-12T10:09:57.239Z,27.22
2022-08-12T10:13:37.723Z,27.67
2022-08-12T10:16:44.271Z,27.96
2022-08-12T10:19:51.863Z,27.96
2022-08-12T10:22:58.165Z,28.07
2022-08-12T10:26:38.692Z,27.88
2022-08-12T10:30:40.546Z,27.70
2022-08-12T10:33:19.095Z,27.77
2022-08-12T10:36:40.894Z,27.42
2022-08-12T10:40:01.153Z,26.90
2022-08-12T10:43:24.458Z,26.89
2022-08-12T10:46:31.377Z,27.31
2022-08-12T10:50:02.883Z,26.67
2022-08-12T10:53:00.529Z,26.18
2022-08-12T10:56:03.458Z,27.49
2022-08-12T10:59:10.652Z,28.95
2022-08-12T11:04:28.594Z,28.77
2022-08-12T11:07:02.399Z,28.74
2022-08-12T11:09:00.510Z,28.22
2022-08-12T11:12:55.830Z,28.09
2022-08-12T11:16:02.834Z,28.77
2022-08-12T11:18:55.611Z,27.57
2022-08-12T11:22:03.146Z,28.18
2022-08-12T11:25:10.407Z,28.49
2022-08-12T11:28:15.999Z,28.79
2022-08-12T11:31:18.784Z,28.62
2022-08-12T11:34:53.562Z,29.67
2022-08-12T11:37:57.871Z,30.55
2022-08-12T11:41:03.970Z,30.86
2022-08-12T11:44:36.319Z,30.84
2022-08-12T11:47:29.074Z,30.46
2022-08-12T11:50:34.235Z,29.91
2022-08-12T11:53:57.708Z,29.79
2022-08-12T11:57:52.465Z,30.35
2022-08-12T12:03:47.915Z,30.29
2022-08-12T12:06:53.162Z,30.38
2022-08-12T12:09:56.040Z,31.63
2022-08-12T12:12:58.345Z,30.92
2022-08-12T12:16:00.897Z,30.66
2022-08-12T12:19:10.207Z,30.33
2022-08-12T12:22:15.676Z,30.20
2022-08-12T12:25:59.287Z,29.03
2022-08-12T12:28:54.905Z,29.98
2022-08-12T12:32:10.185Z,30.97
2022-08-12T12:36:05.576Z,30.45
2022-08-12T12:38:37.775Z,30.57
2022-08-12T12:42:45.064Z,30.27
2022-08-12T12:45:19.741Z,30.21
2022-08-12T12:48:26.209Z,29.92
2022-08-12T12:51:49.163Z,29.53
2022-08-12T12:54:58.527Z,28.98
2022-08-12T12:58:05.293Z,28.69
2022-08-12T13:01:25.524Z,29.07
2022-08-12T13:04:37.389Z,29.46
2022-08-12T13:07:54.186Z,29.05
2022-08-12T13:11:03.162Z,28.99
2022-08-12T13:14:28.011Z,29.94
2022-08-12T13:18:03.149Z,30.16
2022-08-12T13:20:59.518Z,30.83
2022-08-12T13:24:10.284Z,30.71
2022-08-12T13:27:18.720Z,30.28
2022-08-12T13:30:23.772Z,30.59
2022-08-12T13:33:28.683Z,30.74
2022-08-12T13:36:31.019Z,31.23
2022-08-12T13:39:34.891Z,31.24
2022-08-12T13:42:41.339Z,30.22
2022-08-12T13:45:48.713Z,28.82
2022-08-12T13:48:54.224Z,29.25
2022-08-12T13:52:00.106Z,27.83
2022-08-12T13:55:06.168Z,27.67
2022-08-12T13:58:12.696Z,27.82
2022-08-12T14:01:17.819Z,27.04
2022-08-12T14:04:22.509Z,26.46
2022-08-12T14:07:26.258Z,26.96
2022-08-12T14:10:37.928Z,27.12
2022-08-12T14:14:04.838Z,27.04
2022-08-12T14:17:09.768Z,26.00
2022-08-12T14:20:15.613Z,25.70
2022-08-12T14:24:04.675Z,26.40
2022-08-12T14:26:41.481Z,26.76
2022-08-12T14:30:04.994Z,26.87
2022-08-12T14:33:11.147Z,27.98
2022-08-12T14:36:14.534Z,28.00
2022-08-12T14:39:17.793Z,28.70
2022-08-12T14:42:20.915Z,28.76
2022-08-12T14:45:24.576Z,29.15
2022-08-12T14:48:50.912Z,29.45
2022-08-12T14:52:48.203Z,29.63
2022-08-12T14:59:20.350Z,28.37
2022-08-12T15:02:29.600Z,28.79
2022-08-12T15:06:04.984Z,29.44
2022-08-12T15:09:00.377Z,29.06
2022-08-12T15:12:04.425Z,29.57
2022-08-12T15:15:08.860Z,29.83
2022-08-12T15:18:14.301Z,29.92
2022-08-12T15:21:17.732Z,29.92
2022-08-12T15:24:21.639Z,29.62
2022-08-12T15:28:03.328Z,29.20
2022-08-12T15:30:52.140Z,28.96
2022-08-12T15:33:55.261Z,28.57
2022-08-12T15:37:00.270Z,30.08
2022-08-12T15:40:03.131Z,31.02
2022-08-12T15:45:47.340Z,31.02
2022-08-12T15:48:50.507Z,31.02
2022-08-12T15:51:58.855Z,31.66
2022-08-12T15:55:06.547Z,32.08
2022-08-12T15:58:16.811Z,32.44
2022-08-12T16:01:20.604Z,32.73
2022-08-12T16:04:23.199Z,33.05
2022-08-12T16:07:30.967Z,33.63
2022-08-12T16:10:36.133Z,34.00
2022-08-12T16:13:38.416Z,34.07
2022-08-12T16:16:49.164Z,34.13
2022-08-12T16:20:04.091Z,33.81
2022-08-12T16:23:26.342Z,34.14
2022-08-12T16:26:36.652Z,34.66
2022-08-12T16:29:52.895Z,34.47
2022-08-12T16:32:58.280Z,34.21
2022-08-12T16:36:02.016Z,34.23
2022-08-12T16:39:04.944Z,34.05
2022-08-12T16:42:07.590Z,34.25
2022-08-12T16:45:14.763Z,33.95
2022-08-12T16:48:34.870Z,34.45
2022-08-12T16:51:40.382Z,34.53
2022-08-12T16:54:44.665Z,34.75
2022-08-12T16:57:49.396Z,34.98
2022-08-12T17:00:52.447Z,34.95
2022-08-12T17:04:08.291Z,34.81
2022-08-12T17:07:17.152Z,35.04
2022-08-12T17:10:36.944Z,35.05
2022-08-12T17:13:53.083Z,35.48
2022-08-12T17:16:57.048Z,35.92
2022-08-12T17:20:34.526Z,36.13
2022-08-12T17:23:33.367Z,36.31
2022-08-12T17:26:53.945Z,36.57
2022-08-12T17:30:02.882Z,36.67
2022-08-12T17:33:07.833Z,37.08
2022-08-12T17:36:10.787Z,37.36
2022-08-12T17:39:13.500Z,37.55
2022-08-12T17:42:34.503Z,37.69
2022-08-12T17:45:42.212Z,38.24
2022-08-12T17:48:55.540Z,38.11
2022-08-12T17:52:02.055Z,38.18
2022-08-12T17:55:06.459Z,39.13
2022-08-12T17:58:36.896Z,39.20
2022-08-12T18:01:43.786Z,39.34
2022-08-12T18:05:03.259Z,39.54
2022-08-12T18:08:12.489Z,39.92
2022-08-12T18:12:03.096Z,40.20
2022-08-12T18:15:01.440Z,40.40
2022-08-12T18:18:04.615Z,41.33
2022-08-12T18:21:10.878Z,41.70
2022-08-12T18:24:19.785Z,42.41
2022-08-12T18:27:30.130Z,42.80
2022-08-12T18:30:53.451Z,43.42
2022-08-12T18:34:00.691Z,44.37
2022-08-12T18:37:26.648Z,44.79
2022-08-12T18:40:47.646Z,45.17
2022-08-12T18:43:59.966Z,45.60
2022-08-12T18:47:06.446Z,45.88
2022-08-12T18:50:13.413Z,46.24
2022-08-12T18:54:05.433Z,46.90
2022-08-12T18:56:39.912Z,47.25
2022-08-12T19:00:00.213Z,47.56
2022-08-12T19:03:23.384Z,47.68
2022-08-12T19:06:35.645Z,48.05
2022-08-12T19:09:58.862Z,48.06
2022-08-12T19:13:23.501Z,48.26
2022-08-12T19:16:27.076Z,48.58
2022-08-12T19:19:41.463Z,49.24
2022-08-12T19:22:57.889Z,49.43
2022-08-12T19:26:10.591Z,49.73
2022-08-12T19:29:18.224Z,50.32
2022-08-12T19:32:27.310Z,50.36
2022-08-12T19:36:07.762Z,50.47
2022-08-12T19:38:57.959Z,50.59
2022-08-12T19:42:01.723Z,50.77
2022-08-12T19:45:05.170Z,50.96
2022-08-12T19:48:16.335Z,51.19
2022-08-12T19:51:38.290Z,51.58
2022-08-12T19:54:43.959Z,51.68
2022-08-12T19:58:01.505Z,51.82
2022-08-12T20:01:10.845Z,52.33
2022-08-12T20:04:14.378Z,52.92
2022-08-12T20:07:24.100Z,53.06
2022-08-12T20:10:35.413Z,53.10
2022-08-12T20:13:38.957Z,53.65
2022-08-12T20:16:53.155Z,53.56
2022-08-12T20:20:18.915Z,53.42
2022-08-12T20:23:23.313Z,53.86
2022-08-12T20:26:25.880Z,54.27
2022-08-12T20:29:35.542Z,54.32
2022-08-12T20:32:54.937Z,54.33
2022-08-12T20:36:13.375Z,54.40
2022-08-12T20:39:51.119Z,54.56
2022-08-12T20:42:45.531Z,54.79
2022-08-12T20:45:57.339Z,54.82
2022-08-12T20:49:14.498Z,54.83
2022-08-12T20:52:20.034Z,55.32
2022-08-12T20:55:42.118Z,55.51
2022-08-12T20:58:45.473Z,56.01
2022-08-12T21:01:49.190Z,56.18
2022-08-12T21:05:19.609Z,56.71
2022-08-12T21:08:26.328Z,57.19
2022-08-12T21:11:28.842Z,57.30
2022-08-12T21:14:40.018Z,57.53
2022-08-12T21:18:11.642Z,57.59
2022-08-12T21:21:40.303Z,57.27
2022-08-12T21:24:47.008Z,57.09
2022-08-12T21:27:58.714Z,57.71
2022-08-12T21:32:37.939Z,57.61
2022-08-12T21:34:29.602Z,57.29
2022-08-12T21:37:37.407Z,57.09
2022-08-12T21:40:51.612Z,56.83
2022-08-12T21:44:00.861Z,57.01
2022-08-12T21:47:19.902Z,56.97
2022-08-12T21:50:28.978Z,56.97
2022-08-12T21:54:06.744Z,56.73
2022-08-12T21:56:54.284Z,57.61
2022-08-12T21:59:57.007Z,57.67
2022-08-12T22:04:04.395Z,58.28
2022-08-12T22:06:43.919Z,58.72
2022-08-12T22:09:47.034Z,59.41
2022-08-12T22:13:00.917Z,60.46
2022-08-12T22:16:03.807Z,60.87
2022-08-12T22:19:06.540Z,61.44
2022-08-12T22:22:09.095Z,62.16
2022-08-12T22:25:16.693Z,62.45
2022-08-12T22:28:41.193Z,62.62
2022-08-12T22:31:43.829Z,61.86
2022-08-12T22:35:08.168Z,61.28
2022-08-12T22:38:17.183Z,61.41
2022-08-12T22:41:42.600Z,61.31
2022-08-12T22:45:04.212Z,61.42
2022-08-12T22:48:07.666Z,60.93
2022-08-12T22:51:10.513Z,60.98
2022-08-12T22:54:35.512Z,60.90
2022-08-12T22:57:54.387Z,60.81
2022-08-12T23:00:57.706Z,60.64
2022-08-12T23:04:00.470Z,60.55
2022-08-12T23:07:07.231Z,60.84
2022-08-12T23:10:10.107Z,60.80
2022-08-12T23:13:43.241Z,60.45
2022-08-12T23:16:52.367Z,60.16
2022-08-12T23:19:54.812Z,60.71
2022-08-12T23:23:03.122Z,60.16
2022-08-12T23:26:09.053Z,60.28
2022-08-12T23:29:29.672Z,60.15
2022-08-12T23:32:37.920Z,60.20
2022-08-12T23:35:46.104Z,60.38
2022-08-12T23:38:58.671Z,61.17
2022-08-12T23:42:17.526Z,61.93
2022-08-12T23:45:31.577Z,62.17
2022-08-12T23:48:37.825Z,62.18
2022-08-12T23:51:40.348Z,62.31
2022-08-12T23:54:44.964Z,62.60
2022-08-12T23:58:18.065Z,62.70
